sensor_id;sensor_type;location;lat;lon;timestamp;pressure;altitude;pressure_sealevel;temperature;humidity
11808;BME280;5961;42.640;23.380;2022-07-26T00:00:34;93910.19;;;24.01;69.67
11808;BME280;5961;42.640;23.380;2022-07-26T00:03:00;93904.19;;;23.90;69.45
11808;BME280;5961;42.640;23.380;2022-07-26T00:05:27;93911.22;;;23.88;70.17
11808;BME280;5961;42.640;23.380;2022-07-26T00:07:55;93908.81;;;23.74;70.87
11808;BME280;5961;42.640;23.380;2022-07-26T00:10:36;93916.03;;;23.61;71.31
11808;BME280;5961;42.640;23.380;2022-07-26T00:13:03;93906.25;;;23.47;72.01
11808;BME280;5961;42.640;23.380;2022-07-26T00:15:32;93912.97;;;23.39;72.64
11808;BME280;5961;42.640;23.380;2022-07-26T00:17:59;93916.81;;;23.41;72.46
11808;BME280;5961;42.640;23.380;2022-07-26T00:20:25;93912.06;;;23.45;72.27
11808;BME280;5961;42.640;23.380;2022-07-26T00:22:52;93912.44;;;23.47;72.33
11808;BME280;5961;42.640;23.380;2022-07-26T00:25:19;93918.31;;;23.42;72.54
11808;BME280;5961;42.640;23.380;2022-07-26T00:27:46;93913.63;;;23.00;73.78
11808;BME280;5961;42.640;23.380;2022-07-26T00:30:13;93905.22;;;22.94;73.30
11808;BME280;5961;42.640;23.380;2022-07-26T00:32:41;93917.31;;;22.90;73.15
11808;BME280;5961;42.640;23.380;2022-07-26T00:35:08;93914.94;;;22.92;73.91
11808;BME280;5961;42.640;23.380;2022-07-26T00:37:35;93907.97;;;22.91;74.35
11808;BME280;5961;42.640;23.380;2022-07-26T00:40:02;93900.22;;;22.93;73.97
11808;BME280;5961;42.640;23.380;2022-07-26T00:42:29;93911.56;;;23.08;73.83
11808;BME280;5961;42.640;23.380;2022-07-26T00:44:56;93912.56;;;23.17;73.65
11808;BME280;5961;42.640;23.380;2022-07-26T00:47:23;93912.72;;;23.30;73.22
11808;BME280;5961;42.640;23.380;2022-07-26T00:49:51;93861.69;;;23.05;72.88
11808;BME280;5961;42.640;23.380;2022-07-26T00:52:18;93908.72;;;23.38;72.18
11808;BME280;5961;42.640;23.380;2022-07-26T00:54:45;93906.25;;;23.47;71.85
11808;BME280;5961;42.640;23.380;2022-07-26T00:57:12;93905.25;;;23.57;71.55
11808;BME280;5961;42.640;23.380;2022-07-26T00:59:40;93901.63;;;23.64;71.17
11808;BME280;5961;42.640;23.380;2022-07-26T01:02:08;93914.38;;;23.67;71.42
11808;BME280;5961;42.640;23.380;2022-07-26T01:04:35;93900.94;;;23.79;70.70
11808;BME280;5961;42.640;23.380;2022-07-26T01:07:03;93902.81;;;23.82;71.11
11808;BME280;5961;42.640;23.380;2022-07-26T01:09:30;93905.03;;;23.87;70.81
11808;BME280;5961;42.640;23.380;2022-07-26T01:11:57;93901.78;;;23.96;70.08
11808;BME280;5961;42.640;23.380;2022-07-26T01:14:24;93887.75;;;23.97;69.99
11808;BME280;5961;42.640;23.380;2022-07-26T01:16:51;93901.75;;;24.16;69.27
11808;BME280;5961;42.640;23.380;2022-07-26T01:19:18;93897.34;;;24.22;69.19
11808;BME280;5961;42.640;23.380;2022-07-26T01:21:46;93899.16;;;24.28;68.98
11808;BME280;5961;42.640;23.380;2022-07-26T01:24:13;93892.72;;;24.38;68.23
11808;BME280;5961;42.640;23.380;2022-07-26T01:26:40;93906.63;;;24.40;67.74
11808;BME280;5961;42.640;23.380;2022-07-26T01:31:33;93892.22;;;24.43;67.68
11808;BME280;5961;42.640;23.380;2022-07-26T01:34:00;93890.06;;;24.35;68.25
11808;BME280;5961;42.640;23.380;2022-07-26T01:36:27;93893.72;;;24.28;68.86
11808;BME280;5961;42.640;23.380;2022-07-26T01:38:55;93890.66;;;24.26;68.65
11808;BME280;5961;42.640;23.380;2022-07-26T01:41:22;93885.97;;;24.27;69.01
11808;BME280;5961;42.640;23.380;2022-07-26T01:43:49;93883.59;;;24.13;69.23
11808;BME280;5961;42.640;23.380;2022-07-26T01:46:15;93895.75;;;24.04;69.91
11808;BME280;5961;42.640;23.380;2022-07-26T01:48:42;93890.34;;;23.85;71.05
11808;BME280;5961;42.640;23.380;2022-07-26T01:51:09;93888.34;;;23.89;70.82
11808;BME280;5961;42.640;23.380;2022-07-26T01:53:36;93894.75;;;23.79;71.49
11808;BME280;5961;42.640;23.380;2022-07-26T01:56:04;93896.28;;;23.80;71.08
11808;BME280;5961;42.640;23.380;2022-07-26T01:58:31;93888.22;;;23.76;71.29
11808;BME280;5961;42.640;23.380;2022-07-26T02:00:58;93895.56;;;23.76;71.81
11808;BME280;5961;42.640;23.380;2022-07-26T02:03:25;93902.03;;;23.82;71.59
11808;BME280;5961;42.640;23.380;2022-07-26T02:05:51;93898.16;;;23.83;71.67
11808;BME280;5961;42.640;23.380;2022-07-26T02:08:18;93897.81;;;23.81;71.87
11808;BME280;5961;42.640;23.380;2022-07-26T02:10:45;93894.41;;;23.77;72.45
11808;BME280;5961;42.640;23.380;2022-07-26T02:13:29;93896.72;;;23.59;73.44
11808;BME280;5961;42.640;23.380;2022-07-26T02:15:56;93905.59;;;23.39;74.75
11808;BME280;5961;42.640;23.380;2022-07-26T02:18:25;93906.28;;;23.01;76.90
11808;BME280;5961;42.640;23.380;2022-07-26T02:20:52;93915.53;;;22.80;77.83
11808;BME280;5961;42.640;23.380;2022-07-26T02:23:18;93909.44;;;22.46;79.81
11808;BME280;5961;42.640;23.380;2022-07-26T02:25:45;93902.03;;;22.26;81.12
11808;BME280;5961;42.640;23.380;2022-07-26T02:28:13;93897.34;;;22.00;82.82
11808;BME280;5961;42.640;23.380;2022-07-26T02:30:41;93904.03;;;21.92;83.15
11808;BME280;5961;42.640;23.380;2022-07-26T02:33:08;93900.69;;;21.81;84.06
11808;BME280;5961;42.640;23.380;2022-07-26T02:35:35;93894.56;;;21.73;84.67
11808;BME280;5961;42.640;23.380;2022-07-26T02:38:03;93897.31;;;21.70;84.82
11808;BME280;5961;42.640;23.380;2022-07-26T02:40:30;93890.56;;;21.55;85.25
11808;BME280;5961;42.640;23.380;2022-07-26T02:42:57;93883.22;;;21.55;85.09
11808;BME280;5961;42.640;23.380;2022-07-26T02:45:24;93899.09;;;21.53;85.68
11808;BME280;5961;42.640;23.380;2022-07-26T02:47:53;93890.28;;;21.46;85.78
11808;BME280;5961;42.640;23.380;2022-07-26T02:50:22;93901.81;;;21.50;85.93
11808;BME280;5961;42.640;23.380;2022-07-26T02:52:50;93904.53;;;21.50;85.78
11808;BME280;5961;42.640;23.380;2022-07-26T02:55:19;93903.66;;;21.60;85.19
11808;BME280;5961;42.640;23.380;2022-07-26T02:57:47;93908.94;;;21.67;84.88
11808;BME280;5961;42.640;23.380;2022-07-26T03:00:15;93911.88;;;21.79;84.26
11808;BME280;5961;42.640;23.380;2022-07-26T03:02:42;93895.25;;;21.81;83.64
11808;BME280;5961;42.640;23.380;2022-07-26T03:05:11;93901.31;;;21.92;83.09
11808;BME280;5961;42.640;23.380;2022-07-26T03:07:37;93909.63;;;22.08;82.41
11808;BME280;5961;42.640;23.380;2022-07-26T03:10:05;93909.88;;;22.17;81.84
11808;BME280;5961;42.640;23.380;2022-07-26T03:12:32;93908.94;;;22.27;81.36
11808;BME280;5961;42.640;23.380;2022-07-26T03:14:59;93909.56;;;22.38;80.83
11808;BME280;5961;42.640;23.380;2022-07-26T03:17:26;93917.47;;;22.53;80.37
11808;BME280;5961;42.640;23.380;2022-07-26T03:19:53;93919.72;;;22.58;79.32
11808;BME280;5961;42.640;23.380;2022-07-26T03:22:21;93931.16;;;22.72;78.90
11808;BME280;5961;42.640;23.380;2022-07-26T03:24:47;93921.72;;;22.80;78.36
11808;BME280;5961;42.640;23.380;2022-07-26T03:27:14;93927.31;;;22.93;77.59
11808;BME280;5961;42.640;23.380;2022-07-26T03:29:41;93933.31;;;23.04;76.83
11808;BME280;5961;42.640;23.380;2022-07-26T03:32:07;93931.19;;;23.15;76.07
11808;BME280;5961;42.640;23.380;2022-07-26T03:34:34;93919.50;;;23.18;75.05
11808;BME280;5961;42.640;23.380;2022-07-26T03:37:01;93935.81;;;23.38;74.42
11808;BME280;5961;42.640;23.380;2022-07-26T03:39:29;93934.97;;;23.44;73.67
11808;BME280;5961;42.640;23.380;2022-07-26T03:41:56;93933.38;;;23.47;73.37
11808;BME280;5961;42.640;23.380;2022-07-26T03:44:23;93922.56;;;23.43;73.38
11808;BME280;5961;42.640;23.380;2022-07-26T03:46:49;93930.28;;;23.45;73.42
11808;BME280;5961;42.640;23.380;2022-07-26T03:49:16;93927.53;;;23.25;74.25
11808;BME280;5961;42.640;23.380;2022-07-26T03:51:43;93936.25;;;23.13;75.10
11808;BME280;5961;42.640;23.380;2022-07-26T03:54:10;93928.13;;;22.67;77.21
11808;BME280;5961;42.640;23.380;2022-07-26T03:56:38;93898.88;;;22.28;78.23
11808;BME280;5961;42.640;23.380;2022-07-26T03:59:05;93918.59;;;22.28;79.15
11808;BME280;5961;42.640;23.380;2022-07-26T04:01:32;93923.13;;;22.12;80.31
11808;BME280;5961;42.640;23.380;2022-07-26T04:04:00;93915.59;;;21.96;81.31
11808;BME280;5961;42.640;23.380;2022-07-26T04:06:27;93918.03;;;21.83;82.26
11808;BME280;5961;42.640;23.380;2022-07-26T04:08:54;93917.34;;;21.76;82.72
11808;BME280;5961;42.640;23.380;2022-07-26T04:11:21;93925.19;;;21.67;83.35
11808;BME280;5961;42.640;23.380;2022-07-26T04:13:49;93923.38;;;21.57;84.36
11808;BME280;5961;42.640;23.380;2022-07-26T04:16:16;93912.34;;;21.41;85.25
11808;BME280;5961;42.640;23.380;2022-07-26T04:18:42;93910.88;;;21.36;85.67
11808;BME280;5961;42.640;23.380;2022-07-26T04:21:09;93917.03;;;21.37;86.03
11808;BME280;5961;42.640;23.380;2022-07-26T04:23:36;93904.69;;;21.36;86.08
11808;BME280;5961;42.640;23.380;2022-07-26T04:26:03;93909.94;;;21.50;85.90
11808;BME280;5961;42.640;23.380;2022-07-26T04:28:29;93899.41;;;21.59;85.41
11808;BME280;5961;42.640;23.380;2022-07-26T04:30:59;93910.00;;;21.76;84.62
11808;BME280;5961;42.640;23.380;2022-07-26T04:33:26;93894.81;;;21.86;83.80
11808;BME280;5961;42.640;23.380;2022-07-26T04:35:53;93917.75;;;22.08;83.09
11808;BME280;5961;42.640;23.380;2022-07-26T04:38:19;93910.53;;;22.25;82.05
11808;BME280;5961;42.640;23.380;2022-07-26T04:40:48;93904.84;;;22.42;81.45
11808;BME280;5961;42.640;23.380;2022-07-26T04:43:15;93901.13;;;22.60;80.74
11808;BME280;5961;42.640;23.380;2022-07-26T04:45:43;93902.03;;;22.76;79.45
11808;BME280;5961;42.640;23.380;2022-07-26T04:48:11;93908.34;;;22.93;79.33
11808;BME280;5961;42.640;23.380;2022-07-26T04:50:38;93908.38;;;23.13;78.17
11808;BME280;5961;42.640;23.380;2022-07-26T04:53:05;93914.78;;;23.22;77.65
11808;BME280;5961;42.640;23.380;2022-07-26T04:55:33;93915.78;;;23.32;77.77
11808;BME280;5961;42.640;23.380;2022-07-26T04:57:59;93914.00;;;23.45;76.89
11808;BME280;5961;42.640;23.380;2022-07-26T05:00:26;93911.38;;;23.41;76.85
11808;BME280;5961;42.640;23.380;2022-07-26T05:02:54;93909.34;;;23.45;77.06
11808;BME280;5961;42.640;23.380;2022-07-26T05:05:24;93911.59;;;23.51;76.84
11808;BME280;5961;42.640;23.380;2022-07-26T05:07:52;93896.16;;;23.47;76.95
11808;BME280;5961;42.640;23.380;2022-07-26T05:10:20;93903.75;;;23.56;76.92
11808;BME280;5961;42.640;23.380;2022-07-26T05:12:47;93907.91;;;23.61;77.13
11808;BME280;5961;42.640;23.380;2022-07-26T05:15:15;93907.44;;;23.66;76.60
11808;BME280;5961;42.640;23.380;2022-07-26T05:17:42;93900.66;;;23.74;76.96
11808;BME280;5961;42.640;23.380;2022-07-26T05:20:11;93901.63;;;23.83;76.67
11808;BME280;5961;42.640;23.380;2022-07-26T05:22:40;93901.06;;;23.92;76.04
11808;BME280;5961;42.640;23.380;2022-07-26T05:25:07;93905.84;;;24.04;75.60
11808;BME280;5961;42.640;23.380;2022-07-26T05:27:34;93904.13;;;24.14;75.35
11808;BME280;5961;42.640;23.380;2022-07-26T05:30:01;93904.66;;;24.25;74.52
11808;BME280;5961;42.640;23.380;2022-07-26T05:32:27;93907.16;;;24.35;74.00
11808;BME280;5961;42.640;23.380;2022-07-26T05:34:54;93892.63;;;24.42;73.41
11808;BME280;5961;42.640;23.380;2022-07-26T05:37:21;93895.19;;;24.49;73.64
11808;BME280;5961;42.640;23.380;2022-07-26T05:39:49;93896.53;;;24.57;73.68
11808;BME280;5961;42.640;23.380;2022-07-26T05:42:16;93892.13;;;24.63;73.24
11808;BME280;5961;42.640;23.380;2022-07-26T05:44:42;93896.13;;;24.58;73.03
11808;BME280;5961;42.640;23.380;2022-07-26T05:47:09;93899.59;;;24.59;73.53
11808;BME280;5961;42.640;23.380;2022-07-26T05:49:36;93882.19;;;24.56;73.71
11808;BME280;5961;42.640;23.380;2022-07-26T05:52:03;93896.88;;;24.59;74.31
11808;BME280;5961;42.640;23.380;2022-07-26T05:54:30;93889.50;;;24.60;74.16
11808;BME280;5961;42.640;23.380;2022-07-26T05:56:58;93891.72;;;24.65;74.42
11808;BME280;5961;42.640;23.380;2022-07-26T05:59:24;93894.69;;;24.70;74.14
11808;BME280;5961;42.640;23.380;2022-07-26T06:01:51;93892.22;;;24.76;73.88
11808;BME280;5961;42.640;23.380;2022-07-26T06:04:20;93886.78;;;24.76;73.39
11808;BME280;5961;42.640;23.380;2022-07-26T06:06:47;93879.31;;;24.80;73.36
11808;BME280;5961;42.640;23.380;2022-07-26T06:09:14;93879.59;;;24.85;73.51
11808;BME280;5961;42.640;23.380;2022-07-26T06:11:40;93881.69;;;24.94;74.10
11808;BME280;5961;42.640;23.380;2022-07-26T06:14:08;93882.69;;;25.00;74.25
11808;BME280;5961;42.640;23.380;2022-07-26T06:16:35;93878.63;;;25.08;73.31
11808;BME280;5961;42.640;23.380;2022-07-26T06:19:02;93873.75;;;25.16;72.80
11808;BME280;5961;42.640;23.380;2022-07-26T06:21:29;93871.28;;;25.21;72.22
11808;BME280;5961;42.640;23.380;2022-07-26T06:23:55;93871.09;;;25.28;71.06
11808;BME280;5961;42.640;23.380;2022-07-26T06:26:22;93874.50;;;25.32;70.91
11808;BME280;5961;42.640;23.380;2022-07-26T06:28:49;93867.22;;;25.42;70.54
11808;BME280;5961;42.640;23.380;2022-07-26T06:31:17;93870.28;;;25.44;70.26
11808;BME280;5961;42.640;23.380;2022-07-26T06:33:44;93872.81;;;25.51;70.17
11808;BME280;5961;42.640;23.380;2022-07-26T06:36:11;93869.69;;;25.52;69.78
11808;BME280;5961;42.640;23.380;2022-07-26T06:38:38;93834.34;;;25.36;68.88
11808;BME280;5961;42.640;23.380;2022-07-26T06:41:05;93880.72;;;25.61;68.53
11808;BME280;5961;42.640;23.380;2022-07-26T06:43:32;93874.72;;;25.67;69.06
11808;BME280;5961;42.640;23.380;2022-07-26T06:45:58;93857.25;;;25.51;68.42
11808;BME280;5961;42.640;23.380;2022-07-26T06:48:26;93873.34;;;25.75;68.35
11808;BME280;5961;42.640;23.380;2022-07-26T06:50:53;93872.81;;;25.80;68.28
11808;BME280;5961;42.640;23.380;2022-07-26T06:53:20;93877.47;;;25.79;68.24
11808;BME280;5961;42.640;23.380;2022-07-26T06:55:47;93868.13;;;25.80;68.33
11808;BME280;5961;42.640;23.380;2022-07-26T06:58:13;93872.25;;;25.85;67.80
11808;BME280;5961;42.640;23.380;2022-07-26T07:00:40;93867.59;;;25.85;67.68
11808;BME280;5961;42.640;23.380;2022-07-26T07:03:07;93868.13;;;25.93;67.80
11808;BME280;5961;42.640;23.380;2022-07-26T07:05:35;93872.38;;;25.94;67.35
11808;BME280;5961;42.640;23.380;2022-07-26T07:08:01;93863.66;;;25.99;67.16
11808;BME280;5961;42.640;23.380;2022-07-26T07:10:28;93874.03;;;26.04;67.00
11808;BME280;5961;42.640;23.380;2022-07-26T07:12:55;93878.16;;;26.08;66.97
11808;BME280;5961;42.640;23.380;2022-07-26T07:15:22;93873.41;;;26.12;66.64
11808;BME280;5961;42.640;23.380;2022-07-26T07:17:48;93873.31;;;26.16;65.68
11808;BME280;5961;42.640;23.380;2022-07-26T07:20:16;93873.53;;;26.22;65.85
11808;BME280;5961;42.640;23.380;2022-07-26T07:22:44;93869.50;;;26.26;65.34
11808;BME280;5961;42.640;23.380;2022-07-26T07:25:10;93869.59;;;26.35;65.15
11808;BME280;5961;42.640;23.380;2022-07-26T07:27:37;93877.25;;;26.40;64.71
11808;BME280;5961;42.640;23.380;2022-07-26T07:30:05;93876.81;;;26.42;64.69
11808;BME280;5961;42.640;23.380;2022-07-26T07:32:32;93877.66;;;26.51;64.32
11808;BME280;5961;42.640;23.380;2022-07-26T07:34:59;93884.31;;;26.50;64.30
11808;BME280;5961;42.640;23.380;2022-07-26T07:37:26;93877.66;;;26.51;64.21
11808;BME280;5961;42.640;23.380;2022-07-26T07:39:54;93885.28;;;26.56;64.70
11808;BME280;5961;42.640;23.380;2022-07-26T07:42:20;93874.72;;;26.58;64.22
11808;BME280;5961;42.640;23.380;2022-07-26T07:44:47;93883.53;;;26.62;63.41
11808;BME280;5961;42.640;23.380;2022-07-26T07:47:14;93860.13;;;26.52;63.14
11808;BME280;5961;42.640;23.380;2022-07-26T07:49:41;93882.75;;;26.74;62.76
11808;BME280;5961;42.640;23.380;2022-07-26T07:52:07;93866.75;;;26.77;62.23
11808;BME280;5961;42.640;23.380;2022-07-26T07:54:34;93864.91;;;26.86;61.79
11808;BME280;5961;42.640;23.380;2022-07-26T07:57:02;93863.88;;;26.93;62.53
11808;BME280;5961;42.640;23.380;2022-07-26T07:59:29;93866.97;;;26.95;62.58
11808;BME280;5961;42.640;23.380;2022-07-26T08:01:56;93861.81;;;26.97;60.76
11808;BME280;5961;42.640;23.380;2022-07-26T08:04:23;93862.13;;;26.99;61.51
11808;BME280;5961;42.640;23.380;2022-07-26T08:06:50;93871.63;;;27.07;61.15
11808;BME280;5961;42.640;23.380;2022-07-26T08:09:16;93855.56;;;27.09;60.72
11808;BME280;5961;42.640;23.380;2022-07-26T08:11:43;93864.28;;;27.16;59.24
11808;BME280;5961;42.640;23.380;2022-07-26T08:14:11;93857.59;;;27.17;58.19
11808;BME280;5961;42.640;23.380;2022-07-26T08:16:38;93845.50;;;27.18;57.21
11808;BME280;5961;42.640;23.380;2022-07-26T08:19:04;93849.63;;;27.23;57.00
11808;BME280;5961;42.640;23.380;2022-07-26T08:21:31;93856.47;;;27.27;57.30
11808;BME280;5961;42.640;23.380;2022-07-26T08:23:58;93847.41;;;27.31;57.78
11808;BME280;5961;42.640;23.380;2022-07-26T08:26:24;93851.97;;;27.34;56.29
11808;BME280;5961;42.640;23.380;2022-07-26T08:28:51;93843.81;;;27.34;57.05
11808;BME280;5961;42.640;23.380;2022-07-26T08:31:19;93843.13;;;27.42;58.00
11808;BME280;5961;42.640;23.380;2022-07-26T08:33:46;93834.81;;;27.46;57.14
11808;BME280;5961;42.640;23.380;2022-07-26T08:36:14;93841.53;;;27.54;57.14
11808;BME280;5961;42.640;23.380;2022-07-26T08:38:41;93843.06;;;27.55;57.15
11808;BME280;5961;42.640;23.380;2022-07-26T08:41:08;93839.22;;;27.65;57.20
11808;BME280;5961;42.640;23.380;2022-07-26T08:43:34;93840.59;;;27.69;57.23
11808;BME280;5961;42.640;23.380;2022-07-26T08:46:02;93826.34;;;27.74;56.36
11808;BME280;5961;42.640;23.380;2022-07-26T08:48:30;93832.75;;;27.80;55.43
11808;BME280;5961;42.640;23.380;2022-07-26T08:50:58;93832.50;;;27.88;55.53
11808;BME280;5961;42.640;23.380;2022-07-26T08:53:28;93823.72;;;27.93;55.13
11808;BME280;5961;42.640;23.380;2022-07-26T08:55:56;93832.53;;;27.97;54.92
11808;BME280;5961;42.640;23.380;2022-07-26T08:58:23;93829.56;;;28.04;53.94
11808;BME280;5961;42.640;23.380;2022-07-26T09:01:03;93832.03;;;28.11;53.58
11808;BME280;5961;42.640;23.380;2022-07-26T09:03:31;93825.66;;;28.14;52.68
11808;BME280;5961;42.640;23.380;2022-07-26T09:06:10;93825.69;;;28.23;53.61
11808;BME280;5961;42.640;23.380;2022-07-26T09:08:37;93828.16;;;28.30;54.47
11808;BME280;5961;42.640;23.380;2022-07-26T09:11:24;93833.03;;;28.35;53.23
11808;BME280;5961;42.640;23.380;2022-07-26T09:13:53;93826.06;;;28.34;52.26
11808;BME280;5961;42.640;23.380;2022-07-26T09:16:20;93827.94;;;28.46;52.98
11808;BME280;5961;42.640;23.380;2022-07-26T09:18:48;93819.41;;;28.44;52.52
11808;BME280;5961;42.640;23.380;2022-07-26T09:21:28;93827.78;;;28.59;52.62
11808;BME280;5961;42.640;23.380;2022-07-26T09:23:56;93832.69;;;28.64;51.58
11808;BME280;5961;42.640;23.380;2022-07-26T09:26:23;93820.53;;;28.65;51.12
11808;BME280;5961;42.640;23.380;2022-07-26T09:29:07;93828.03;;;28.73;50.25
11808;BME280;5961;42.640;23.380;2022-07-26T09:31:35;93818.16;;;28.76;50.29
11808;BME280;5961;42.640;23.380;2022-07-26T09:34:03;93814.19;;;28.77;47.99
11808;BME280;5961;42.640;23.380;2022-07-26T09:36:31;93818.31;;;28.81;48.56
11808;BME280;5961;42.640;23.380;2022-07-26T09:39:00;93824.84;;;28.84;47.72
11808;BME280;5961;42.640;23.380;2022-07-26T09:41:28;93822.25;;;28.90;46.58
11808;BME280;5961;42.640;23.380;2022-07-26T09:43:57;93811.94;;;28.94;46.32
11808;BME280;5961;42.640;23.380;2022-07-26T09:46:25;93785.94;;;28.80;46.89
11808;BME280;5961;42.640;23.380;2022-07-26T09:48:53;93813.16;;;29.02;46.87
11808;BME280;5961;42.640;23.380;2022-07-26T09:51:35;93805.28;;;29.04;46.08
11808;BME280;5961;42.640;23.380;2022-07-26T09:54:03;93816.66;;;29.11;46.07
11808;BME280;5961;42.640;23.380;2022-07-26T09:56:44;93799.63;;;29.16;44.84
11808;BME280;5961;42.640;23.380;2022-07-26T09:59:12;93810.16;;;29.27;44.61
11808;BME280;5961;42.640;23.380;2022-07-26T10:01:39;93791.59;;;29.13;43.35
11808;BME280;5961;42.640;23.380;2022-07-26T10:04:06;93801.19;;;29.35;43.28
11808;BME280;5961;42.640;23.380;2022-07-26T10:06:34;93803.75;;;29.39;42.69
11808;BME280;5961;42.640;23.380;2022-07-26T10:09:02;93800.41;;;29.44;43.58
11808;BME280;5961;42.640;23.380;2022-07-26T10:11:35;93811.19;;;29.48;43.60
11808;BME280;5961;42.640;23.380;2022-07-26T10:14:34;93801.78;;;29.49;43.50
11808;BME280;5961;42.640;23.380;2022-07-26T10:20:05;93793.84;;;29.60;44.14
11808;BME280;5961;42.640;23.380;2022-07-26T10:22:41;93793.41;;;29.61;42.24
11808;BME280;5961;42.640;23.380;2022-07-26T10:25:45;93792.28;;;29.68;41.58
11808;BME280;5961;42.640;23.380;2022-07-26T10:28:23;93788.34;;;29.69;39.68
11808;BME280;5961;42.640;23.380;2022-07-26T10:30:51;93767.84;;;29.55;39.37
11808;BME280;5961;42.640;23.380;2022-07-26T10:33:21;93781.31;;;29.77;38.67
11808;BME280;5961;42.640;23.380;2022-07-26T10:35:50;93779.97;;;29.81;38.92
11808;BME280;5961;42.640;23.380;2022-07-26T10:38:24;93763.81;;;29.83;38.89
11808;BME280;5961;42.640;23.380;2022-07-26T10:40:55;93770.81;;;29.93;38.92
11808;BME280;5961;42.640;23.380;2022-07-26T10:43:23;93779.91;;;30.00;38.65
11808;BME280;5961;42.640;23.380;2022-07-26T10:46:21;93770.28;;;30.04;39.07
11808;BME280;5961;42.640;23.380;2022-07-26T10:48:55;93767.22;;;30.11;38.66
11808;BME280;5961;42.640;23.380;2022-07-26T10:51:24;93764.94;;;30.19;38.49
11808;BME280;5961;42.640;23.380;2022-07-26T10:53:59;93763.81;;;30.25;37.95
11808;BME280;5961;42.640;23.380;2022-07-26T10:56:27;93760.31;;;30.25;37.92
11808;BME280;5961;42.640;23.380;2022-07-26T10:58:54;93756.91;;;30.39;37.10
11808;BME280;5961;42.640;23.380;2022-07-26T11:01:21;93745.63;;;30.46;37.41
11808;BME280;5961;42.640;23.380;2022-07-26T11:03:48;93745.09;;;30.57;38.17
11808;BME280;5961;42.640;23.380;2022-07-26T11:06:16;93740.56;;;30.68;39.25
11808;BME280;5961;42.640;23.380;2022-07-26T11:08:44;93730.88;;;30.82;39.33
11808;BME280;5961;42.640;23.380;2022-07-26T11:11:13;93737.66;;;30.95;38.26
11808;BME280;5961;42.640;23.380;2022-07-26T11:14:02;93710.22;;;30.95;38.63
11808;BME280;5961;42.640;23.380;2022-07-26T11:16:35;93726.94;;;31.21;38.98
11808;BME280;5961;42.640;23.380;2022-07-26T11:19:11;93720.50;;;31.39;38.74
11808;BME280;5961;42.640;23.380;2022-07-26T11:21:38;93715.22;;;31.50;37.87
11808;BME280;5961;42.640;23.380;2022-07-26T11:24:06;93718.16;;;31.61;37.37
11808;BME280;5961;42.640;23.380;2022-07-26T11:26:41;93712.44;;;31.79;38.18
11808;BME280;5961;42.640;23.380;2022-07-26T11:29:07;93709.88;;;31.90;37.20
11808;BME280;5961;42.640;23.380;2022-07-26T11:31:36;93707.22;;;32.11;37.19
11808;BME280;5961;42.640;23.380;2022-07-26T11:34:05;93713.44;;;32.26;37.15
11808;BME280;5961;42.640;23.380;2022-07-26T11:36:34;93704.84;;;32.38;37.21
11808;BME280;5961;42.640;23.380;2022-07-26T11:39:03;93696.06;;;32.54;35.64
11808;BME280;5961;42.640;23.380;2022-07-26T11:41:30;93698.47;;;32.67;32.67
11808;BME280;5961;42.640;23.380;2022-07-26T11:43:58;93688.59;;;32.75;31.82
11808;BME280;5961;42.640;23.380;2022-07-26T11:46:39;93687.19;;;32.85;31.25
11808;BME280;5961;42.640;23.380;2022-07-26T11:49:13;93698.34;;;32.96;31.49
11808;BME280;5961;42.640;23.380;2022-07-26T11:51:47;93695.44;;;33.05;30.78
11808;BME280;5961;42.640;23.380;2022-07-26T11:54:14;93679.34;;;32.98;30.19
11808;BME280;5961;42.640;23.380;2022-07-26T11:56:54;93691.38;;;33.21;30.84
11808;BME280;5961;42.640;23.380;2022-07-26T11:59:25;93685.69;;;33.30;30.20
11808;BME280;5961;42.640;23.380;2022-07-26T12:01:52;93684.78;;;33.39;30.38
11808;BME280;5961;42.640;23.380;2022-07-26T12:04:21;93678.28;;;33.42;30.17
11808;BME280;5961;42.640;23.380;2022-07-26T12:06:50;93680.13;;;33.50;30.22
11808;BME280;5961;42.640;23.380;2022-07-26T12:09:31;93683.75;;;33.62;29.99
11808;BME280;5961;42.640;23.380;2022-07-26T12:11:58;93676.31;;;33.74;29.96
11808;BME280;5961;42.640;23.380;2022-07-26T12:14:27;93685.16;;;33.83;29.30
11808;BME280;5961;42.640;23.380;2022-07-26T12:16:54;93650.47;;;33.65;28.93
11808;BME280;5961;42.640;23.380;2022-07-26T12:19:28;93674.69;;;33.87;28.89
11808;BME280;5961;42.640;23.380;2022-07-26T12:21:57;93660.94;;;33.93;28.63
11808;BME280;5961;42.640;23.380;2022-07-26T12:24:41;93680.06;;;34.07;27.54
11808;BME280;5961;42.640;23.380;2022-07-26T12:27:10;93677.41;;;34.18;27.16
11808;BME280;5961;42.640;23.380;2022-07-26T12:29:40;93676.94;;;34.26;25.73
11808;BME280;5961;42.640;23.380;2022-07-26T12:32:12;93675.00;;;34.37;25.70
11808;BME280;5961;42.640;23.380;2022-07-26T12:34:41;93665.50;;;34.44;25.24
11808;BME280;5961;42.640;23.380;2022-07-26T12:37:14;93671.63;;;34.59;25.10
11808;BME280;5961;42.640;23.380;2022-07-26T12:39:53;93664.56;;;34.58;24.60
11808;BME280;5961;42.640;23.380;2022-07-26T12:42:26;93670.91;;;34.69;24.39
11808;BME280;5961;42.640;23.380;2022-07-26T12:44:55;93673.19;;;34.77;23.40
11808;BME280;5961;42.640;23.380;2022-07-26T12:47:22;93672.97;;;34.86;23.79
11808;BME280;5961;42.640;23.380;2022-07-26T12:49:49;93671.22;;;34.88;23.54
11808;BME280;5961;42.640;23.380;2022-07-26T12:52:18;93673.28;;;34.93;23.43
11808;BME280;5961;42.640;23.380;2022-07-26T12:54:46;93654.94;;;35.01;23.41
11808;BME280;5961;42.640;23.380;2022-07-26T12:57:13;93631.81;;;34.88;22.68
11808;BME280;5961;42.640;23.380;2022-07-26T12:59:40;93658.78;;;35.20;22.17
11808;BME280;5961;42.640;23.380;2022-07-26T13:02:09;93648.75;;;35.17;21.49
11808;BME280;5961;42.640;23.380;2022-07-26T13:04:36;93628.38;;;35.09;22.22
11808;BME280;5961;42.640;23.380;2022-07-26T13:07:04;93660.31;;;35.38;21.72
11808;BME280;5961;42.640;23.380;2022-07-26T13:09:31;93649.28;;;35.44;21.94
11808;BME280;5961;42.640;23.380;2022-07-26T13:11:58;93651.28;;;35.49;22.30